TimeCST,TemperatureF,Dew PointF,Humidity,Sea Level PressureIn,VisibilityMPH,Wind Direction,Wind SpeedMPH,Gust SpeedMPH,PrecipitationIn,Events,Conditions,WindDirDegrees,DateUTC
12:53 AM,27.0,19.9,75,30.25,10.0,North,3.5,-,N/A,,Clear,350,2014-01-18 06:53:00
1:53 AM,27.0,19.0,72,30.27,10.0,Calm,Calm,-,N/A,,Clear,0,2014-01-18 07:53:00
2:53 AM,26.1,19.0,75,30.27,10.0,Calm,Calm,-,N/A,,Clear,0,2014-01-18 08:53:00
3:53 AM,25.0,19.0,78,30.27,10.0,NNW,3.5,-,N/A,,Clear,340,2014-01-18 09:53:00
4:53 AM,24.1,19.9,84,30.27,10.0,Calm,Calm,-,N/A,,Clear,0,2014-01-18 10:53:00
5:53 AM,24.1,19.0,81,30.27,10.0,Calm,Calm,-,N/A,,Clear,0,2014-01-18 11:53:00
6:53 AM,24.1,19.0,81,30.27,10.0,Calm,Calm,-,N/A,,Clear,0,2014-01-18 12:53:00
7:53 AM,25.0,21.0,85,30.28,10.0,Calm,Calm,-,N/A,,Clear,0,2014-01-18 13:53:00
8:53 AM,37.0,21.9,54,30.30,10.0,South,3.5,-,N/A,,Clear,170,2014-01-18 14:53:00
9:53 AM,44.1,19.0,37,30.29,10.0,SSE,5.8,-,N/A,,Clear,160,2014-01-18 15:53:00
10:53 AM,48.9,14.0,25,30.27,10.0,SSW,12.7,-,N/A,,Clear,200,2014-01-18 16:53:00
11:53 AM,53.1,12.0,20,30.23,10.0,SSW,10.4,-,N/A,,Clear,200,2014-01-18 17:53:00
12:53 PM,55.9,14.0,19,30.17,10.0,South,12.7,-,N/A,,Clear,180,2014-01-18 18:53:00
1:53 PM,57.9,17.1,20,30.14,10.0,South,11.5,-,N/A,,Clear,190,2014-01-18 19:53:00
2:53 PM,60.1,19.0,20,30.13,10.0,SSW,6.9,20.7,N/A,,Clear,210,2014-01-18 20:53:00
3:53 PM,59.0,19.0,21,30.12,10.0,SW,8.1,16.1,N/A,,Clear,230,2014-01-18 21:53:00
4:53 PM,57.0,21.9,26,30.11,10.0,SSW,6.9,-,N/A,,Clear,200,2014-01-18 22:53:00
5:53 PM,53.1,24.1,32,30.10,10.0,SSW,8.1,-,N/A,,Clear,200,2014-01-18 23:53:00
6:53 PM,51.1,24.1,35,30.11,10.0,SSW,5.8,-,N/A,,Clear,210,2014-01-19 00:53:00
7:53 PM,48.9,25.0,39,30.12,10.0,SSW,6.9,-,N/A,,Clear,200,2014-01-19 01:53:00
8:53 PM,48.9,25.0,39,30.11,10.0,SSW,9.2,-,N/A,,Clear,210,2014-01-19 02:53:00
9:53 PM,46.9,27.0,46,30.10,10.0,SSW,8.1,-,N/A,,Clear,210,2014-01-19 03:53:00
10:53 PM,45.0,28.0,52,30.10,10.0,SSW,4.6,-,N/A,,Clear,200,2014-01-19 04:53:00
11:53 PM,44.1,28.9,55,30.10,10.0,SSW,3.5,-,N/A,,Partly Cloudy,210,2014-01-19 05:53:00